Time;durP1;ratioP1;P1;durP2;ratioP2;P2;SDS_P1;SDS_P2;PMS_P1;PMS_P2;Temp;Humidity;BMP_temperature;BMP_pressure;BME280_temperature;BME280_humidity;BME280_pressure;Samples;Min_cycle;Max_cycle;Signal;HPM_P1;HPM_P2
2023/10/11 00:00:40;;;;;;;4.35;2.45;;;;;;;;;;5095892;28;20047;-57
2023/10/11 00:03:14;;;;;;;7.40;1.90;;;;;;;;;;5113046;28;20051;-57
2023/10/11 00:05:41;;;;;;;5.95;2.70;;;;;;;;;;5115674;28;20515;-57
2023/10/11 00:08:09;;;;;;;4.80;2.22;;;;;;;;;;5115864;28;20472;-58
2023/10/11 00:10:42;;;;;;;5.60;2.22;;;;;;;;;;5115965;28;20074;-59
2023/10/11 00:13:12;;;;;;;6.07;2.30;;;;;;;;;;5100577;28;20492;-59
2023/10/11 00:15:38;;;;;;;3.78;1.95;;;;;;;;;;5094912;28;20052;-59
2023/10/11 00:18:05;;;;;;;6.68;2.47;;;;;;;;;;5095003;28;20055;-59
2023/10/11 00:20:47;;;;;;;4.65;2.17;;;;;;;;;;5095165;28;20062;-58
2023/10/11 00:23:15;;;;;;;6.45;2.92;;;;;;;;;;5094698;28;20113;-59
2023/10/11 00:25:44;;;;;;;4.68;2.20;;;;;;;;;;5095028;28;20051;-58
2023/10/11 00:28:14;;;;;;;4.40;2.63;;;;;;;;;;5111535;28;20070;-58
2023/10/11 00:30:41;;;;;;;3.95;2.15;;;;;;;;;;5115351;28;20075;-59
2023/10/11 00:33:08;;;;;;;6.55;2.53;;;;;;;;;;5115401;28;20062;-58
2023/10/11 00:35:36;;;;;;;4.75;2.40;;;;;;;;;;5115316;28;20063;-58
2023/10/11 00:38:05;;;;;;;4.00;2.22;;;;;;;;;;5115311;28;20484;-58
2023/10/11 00:40:34;;;;;;;3.17;1.63;;;;;;;;;;5114964;28;20473;-58
2023/10/11 00:43:06;;;;;;;3.63;2.70;;;;;;;;;;5096853;28;20055;-58
2023/10/11 00:45:36;;;;;;;4.15;2.17;;;;;;;;;;5093897;28;20062;-58
2023/10/11 00:48:06;;;;;;;3.63;1.80;;;;;;;;;;5094125;28;20055;-58
2023/10/11 00:50:36;;;;;;;4.93;2.70;;;;;;;;;;5094699;28;20051;-59
2023/10/11 00:53:07;;;;;;;5.72;2.10;;;;;;;;;;5094255;28;20067;-59
2023/10/11 00:55:34;;;;;;;5.55;2.42;;;;;;;;;;5094659;28;20074;-59
2023/10/11 00:58:02;;;;;;;7.22;2.63;;;;;;;;;;5095274;28;20059;-58
2023/10/11 01:00:35;;;;;;;4.13;2.17;;;;;;;;;;5094385;28;20511;-58
2023/10/11 01:03:05;;;;;;;4.63;2.47;;;;;;;;;;5111413;28;20056;-58
2023/10/11 01:05:33;;;;;;;3.25;1.83;;;;;;;;;;5114561;28;20055;-58
2023/10/11 01:08:00;;;;;;;4.20;1.92;;;;;;;;;;5114244;28;20051;-58
2023/10/11 01:10:29;;;;;;;3.85;2.50;;;;;;;;;;5113498;28;20070;-58
2023/10/11 01:12:57;;;;;;;4.22;2.33;;;;;;;;;;5093939;28;20047;-58
2023/10/11 01:15:24;;;;;;;5.22;2.00;;;;;;;;;;5093971;28;20070;-59
2023/10/11 01:17:53;;;;;;;7.13;2.58;;;;;;;;;;5094339;27;20503;-58
2023/10/11 01:20:22;;;;;;;3.42;1.88;;;;;;;;;;5113474;28;20492;-58
2023/10/11 01:22:50;;;;;;;5.03;2.40;;;;;;;;;;5114125;28;20062;-58
2023/10/11 01:25:18;;;;;;;3.38;1.90;;;;;;;;;;5114443;28;20059;-59
2023/10/11 01:27:45;;;;;;;3.90;1.90;;;;;;;;;;5095585;27;20055;-58
2023/10/11 01:30:12;;;;;;;6.00;2.40;;;;;;;;;;5093704;28;20826;-58
2023/10/11 01:32:41;;;;;;;4.18;2.47;;;;;;;;;;5098199;28;20047;-58
2023/10/11 01:35:08;;;;;;;6.15;2.42;;;;;;;;;;5114312;28;20048;-58
2023/10/11 01:37:41;;;;;;;4.82;2.10;;;;;;;;;;5113843;28;20043;-58
2023/10/11 01:40:11;;;;;;;6.78;2.72;;;;;;;;;;5114266;28;20412;-58
2023/10/11 01:42:41;;;;;;;5.22;2.30;;;;;;;;;;5095158;27;20048;-59
2023/10/11 01:45:09;;;;;;;4.38;2.15;;;;;;;;;;5093463;28;20417;-58
2023/10/11 01:47:35;;;;;;;3.75;2.00;;;;;;;;;;5093468;28;20052;-58
2023/10/11 01:50:02;;;;;;;4.90;1.92;;;;;;;;;;5093892;28;20056;-58
2023/10/11 01:52:34;;;;;;;4.75;2.33;;;;;;;;;;5093393;28;20516;-58
2023/10/11 01:55:01;;;;;;;5.78;2.78;;;;;;;;;;5093022;28;20051;-59
2023/10/11 01:57:29;;;;;;;4.25;2.17;;;;;;;;;;5112031;27;20054;-58
2023/10/11 01:59:56;;;;;;;7.53;2.42;;;;;;;;;;5093074;28;20059;-58
2023/10/11 02:02:27;;;;;;;4.97;2.42;;;;;;;;;;5104852;28;20154;-58
2023/10/11 02:04:57;;;;;;;4.72;2.45;;;;;;;;;;5113400;28;20066;-59
2023/10/11 02:07:24;;;;;;;8.70;2.35;;;;;;;;;;5113534;28;20415;-58
2023/10/11 02:09:51;;;;;;;5.63;2.80;;;;;;;;;;5112624;28;20059;-59
2023/10/11 02:12:18;;;;;;;4.38;2.35;;;;;;;;;;5091609;28;20052;-58
2023/10/11 02:14:47;;;;;;;5.25;2.10;;;;;;;;;;5100504;28;20071;-58
2023/10/11 02:17:17;;;;;;;5.73;2.80;;;;;;;;;;5092864;28;20066;-58
2023/10/11 02:19:45;;;;;;;4.10;2.35;;;;;;;;;;5093039;28;20052;-60
2023/10/11 02:22:11;;;;;;;4.43;2.10;;;;;;;;;;5092609;28;20052;-58
2023/10/11 02:24:38;;;;;;;5.95;2.55;;;;;;;;;;5092617;28;20056;-58
2023/10/11 02:27:06;;;;;;;5.13;2.45;;;;;;;;;;5093816;28;20056;-58
2023/10/11 02:29:35;;;;;;;5.60;2.55;;;;;;;;;;5092707;28;20051;-58
2023/10/11 02:32:08;;;;;;;7.20;2.67;;;;;;;;;;5092843;28;20056;-59
2023/10/11 02:34:35;;;;;;;5.18;2.40;;;;;;;;;;5104888;28;20074;-58
2023/10/11 02:37:10;;;;;;;6.13;2.67;;;;;;;;;;5092566;28;20063;-58
2023/10/11 02:39:43;;;;;;;7.18;2.58;;;;;;;;;;5092576;28;20048;-58
2023/10/11 02:42:09;;;;;;;5.57;2.58;;;;;;;;;;5093299;28;20515;-58
2023/10/11 02:44:39;;;;;;;4.75;2.40;;;;;;;;;;5092385;28;20404;-58
2023/10/11 02:47:08;;;;;;;4.10;2.13;;;;;;;;;;5092237;28;20052;-59
2023/10/11 02:49:35;;;;;;;9.35;2.95;;;;;;;;;;5092457;28;20063;-59
2023/10/11 02:52:06;;;;;;;4.55;2.20;;;;;;;;;;5092187;28;20052;-58
2023/10/11 02:54:38;;;;;;;10.00;2.63;;;;;;;;;;5092448;28;20059;-59
2023/10/11 02:57:06;;;;;;;5.90;3.08;;;;;;;;;;5093771;28;20404;-58
2023/10/11 02:59:34;;;;;;;5.77;2.40;;;;;;;;;;5112272;28;20047;-58
2023/10/11 03:02:00;;;;;;;5.90;2.63;;;;;;;;;;5112806;28;20051;-58
2023/10/11 03:04:32;;;;;;;4.85;2.10;;;;;;;;;;5112689;28;20051;-58
2023/10/11 03:07:00;;;;;;;7.63;2.80;;;;;;;;;;5114819;28;20078;-58
2023/10/11 03:09:27;;;;;;;4.63;1.98;;;;;;;;;;5116715;28;20051;-58
2023/10/11 03:11:56;;;;;;;4.63;2.30;;;;;;;;;;5108586;28;20054;-58
2023/10/11 03:14:24;;;;;;;9.25;2.53;;;;;;;;;;5116552;28;20063;-58
2023/10/11 03:16:57;;;;;;;3.85;2.22;;;;;;;;;;5116311;28;20051;-58
2023/10/11 03:19:24;;;;;;;4.82;2.40;;;;;;;;;;5116646;28;20051;-58
2023/10/11 03:21:54;;;;;;;3.80;2.38;;;;;;;;;;5116404;28;20048;-58
2023/10/11 03:24:24;;;;;;;7.22;2.80;;;;;;;;;;5116434;28;20048;-58
2023/10/11 03:26:51;;;;;;;5.05;2.58;;;;;;;;;;5105786;28;20500;-58
2023/10/11 03:29:21;;;;;;;4.10;2.42;;;;;;;;;;5095531;28;20048;-58
2023/10/11 03:31:47;;;;;;;;;;;;;;;;;;5096712;28;20063;-58
2023/10/11 03:34:19;;;;;;;4.50;2.00;;;;;;;;;;5113292;28;19927;-58
2023/10/11 03:36:51;;;;;;;6.50;2.45;;;;;;;;;;5116224;28;20055;-58
2023/10/11 03:39:28;;;;;;;5.43;2.88;;;;;;;;;;5116358;28;20515;-58
2023/10/11 03:42:07;;;;;;;5.00;2.83;;;;;;;;;;5103122;27;20056;-58
2023/10/11 03:44:36;;;;;;;4.65;2.17;;;;;;;;;;5095527;28;20055;-58
2023/10/11 03:47:06;;;;;;;8.32;2.50;;;;;;;;;;5095901;28;20052;-58
2023/10/11 03:49:49;;;;;;;7.15;2.53;;;;;;;;;;5095506;28;20055;-58
2023/10/11 03:52:19;;;;;;;5.53;2.55;;;;;;;;;;5095281;28;20060;-58
2023/10/11 03:54:46;;;;;;;;;;;;;;;;;;5095971;28;20055;-58
2023/10/11 03:57:17;;;;;;;3.97;1.70;;;;;;;;;;5096689;27;19927;-58
2023/10/11 03:59:48;;;;;;;4.50;2.50;;;;;;;;;;5095012;28;20059;-58
2023/10/11 04:02:17;;;;;;;6.32;2.60;;;;;;;;;;5095069;28;20048;-57
2023/10/11 04:04:48;;;;;;;5.68;2.65;;;;;;;;;;5095192;28;20497;-57
2023/10/11 04:07:16;;;;;;;7.63;2.85;;;;;;;;;;5094798;28;20059;-57
2023/10/11 04:09:46;;;;;;;4.82;2.53;;;;;;;;;;5095228;27;20050;-58
2023/10/11 04:12:14;;;;;;;5.78;2.78;;;;;;;;;;5095483;28;20055;-58
2023/10/11 04:14:44;;;;;;;5.35;2.70;;;;;;;;;;5094828;28;20059;-57
2023/10/11 04:17:14;;;;;;;;;;;;;;;;;;5095099;28;20052;-58
2023/10/11 04:19:43;;;;;;;9.27;3.05;;;;;;;;;;5095332;28;20299;-58
2023/10/11 04:22:23;;;;;;;3.75;2.10;;;;;;;;;;5094845;28;20075;-58
2023/10/11 04:24:53;;;;;;;7.13;2.83;;;;;;;;;;5096082;28;20051;-58
2023/10/11 04:32:47;;;;;;;5.32;2.47;;;;;;;;;;5099279;28;20043;-58
2023/10/11 04:35:22;;;;;;;5.80;2.65;;;;;;;;;;5107989;27;20400;-58
2023/10/11 04:37:54;;;;;;;4.70;2.70;;;;;;;;;;5104826;27;20047;-58
2023/10/11 04:40:38;;;;;;;4.57;2.08;;;;;;;;;;5101988;27;20044;-57
2023/10/11 04:43:08;;;;;;;4.53;2.72;;;;;;;;;;5094382;28;20056;-57
2023/10/11 04:45:44;;;;;;;4.93;2.83;;;;;;;;;;5107002;27;20059;-57
2023/10/11 04:48:14;;;;;;;7.30;2.67;;;;;;;;;;5114881;28;20056;-58
2023/10/11 04:50:47;;;;;;;10.23;3.47;;;;;;;;;;5102928;27;20051;-58
2023/10/11 04:53:17;;;;;;;6.25;2.55;;;;;;;;;;5107289;27;20158;-58
2023/10/11 04:55:46;;;;;;;5.57;2.42;;;;;;;;;;5112164;27;20058;-58
2023/10/11 04:58:39;;;;;;;7.70;3.08;;;;;;;;;;5114682;28;20510;-58
2023/10/11 05:01:08;;;;;;;7.20;2.42;;;;;;;;;;5109199;28;20477;-58
2023/10/11 05:03:37;;;;;;;10.38;3.00;;;;;;;;;;5096236;27;20044;-57
2023/10/11 05:06:13;;;;;;;5.07;2.70;;;;;;;;;;5100543;27;20488;-58
2023/10/11 05:11:35;;;;;;;6.15;2.60;;;;;;;;;;5111773;28;20051;-57
2023/10/11 05:16:59;;;;;;;4.68;2.65;;;;;;;;;;5086891;27;20052;-58
2023/10/11 05:19:26;;;;;;;4.28;1.80;;;;;;;;;;5104464;28;20464;-58
2023/10/11 05:21:53;;;;;;;4.22;2.35;;;;;;;;;;5103869;28;20055;-57
2023/10/11 05:24:33;;;;;;;5.72;2.10;;;;;;;;;;5109676;28;20162;-58
2023/10/11 05:27:35;;;;;;;6.88;3.22;;;;;;;;;;5102716;27;20412;-57
2023/10/11 05:30:06;;;;;;;2.95;1.85;;;;;;;;;;5096808;28;20048;-57
2023/10/11 05:32:33;;;;;;;6.55;2.50;;;;;;;;;;5096383;28;20047;-57
2023/10/11 05:35:19;;;;;;;7.82;2.67;;;;;;;;;;5113688;28;20396;-57
2023/10/11 05:51:31;;;;;;;3.58;1.90;;;;;;;;;;5099704;28;20060;-58
2023/10/11 05:53:59;;;;;;;6.57;2.55;;;;;;;;;;5108649;28;20527;-58
2023/10/11 05:56:33;;;;;;;6.05;2.30;;;;;;;;;;5096880;27;20489;-58
2023/10/11 05:59:03;;;;;;;6.05;2.28;;;;;;;;;;5106801;28;20062;-58
2023/10/11 06:01:34;;;;;;;5.28;2.60;;;;;;;;;;5114251;27;20047;-58
2023/10/11 06:04:03;;;;;;;4.40;2.10;;;;;;;;;;5112668;28;20052;-58
2023/10/11 06:06:38;;;;;;;4.00;2.30;;;;;;;;;;5102801;28;20061;-58
2023/10/11 06:09:08;;;;;;;9.48;2.35;;;;;;;;;;5106368;28;20047;-58
2023/10/11 06:11:38;;;;;;;4.78;2.28;;;;;;;;;;5113636;28;20062;-57
2023/10/11 06:14:07;;;;;;;12.45;2.67;;;;;;;;;;5105561;28;20056;-57
2023/10/11 06:16:38;;;;;;;5.25;2.20;;;;;;;;;;5097425;28;20500;-57
2023/10/11 06:19:16;;;;;;;4.90;2.10;;;;;;;;;;5101208;28;20058;-58
2023/10/11 06:21:56;;;;;;;4.95;2.70;;;;;;;;;;5094040;28;20052;-57
2023/10/11 06:24:23;;;;;;;5.55;3.13;;;;;;;;;;5130689;27;20488;-58
2023/10/11 06:26:53;;;;;;;5.32;2.13;;;;;;;;;;5122088;27;20059;-58
2023/10/11 06:29:22;;;;;;;5.20;2.20;;;;;;;;;;5104630;28;20523;-59
2023/10/11 06:31:49;;;;;;;;;;;;;;;;;;5109705;27;20051;-59
2023/10/11 06:34:23;;;;;;;6.13;2.20;;;;;;;;;;5106884;28;19928;-59
2023/10/11 06:36:50;;;;;;;3.63;2.03;;;;;;;;;;5109717;28;20051;-58
2023/10/11 06:39:55;;;;;;;4.45;2.10;;;;;;;;;;5107079;28;20056;-59
2023/10/11 06:42:21;;;;;;;7.32;2.47;;;;;;;;;;5103768;28;20056;-59
2023/10/11 06:44:48;;;;;;;5.85;2.83;;;;;;;;;;5100342;28;20047;-59
2023/10/11 06:47:16;;;;;;;5.43;2.58;;;;;;;;;;5101205;28;20067;-59
2023/10/11 06:49:47;;;;;;;6.28;2.10;;;;;;;;;;5102809;28;20055;-59
2023/10/11 06:52:17;;;;;;;4.75;1.90;;;;;;;;;;5107499;28;20055;-58
2023/10/11 06:54:46;;;;;;;4.68;2.42;;;;;;;;;;5105903;28;20082;-59
2023/10/11 06:57:16;;;;;;;10.52;3.50;;;;;;;;;;5106812;28;20070;-59
2023/10/11 06:59:43;;;;;;;5.80;2.45;;;;;;;;;;5103585;28;20079;-58
2023/10/11 07:02:17;;;;;;;6.10;2.30;;;;;;;;;;5103767;28;20056;-58
2023/10/11 07:04:50;;;;;;;4.20;2.15;;;;;;;;;;5106599;28;20051;-58
2023/10/11 07:07:18;;;;;;;5.80;2.55;;;;;;;;;;5108139;28;20062;-58
2023/10/11 07:09:56;;;;;;;4.45;2.38;;;;;;;;;;5103691;28;20047;-58
2023/10/11 07:12:28;;;;;;;5.53;2.17;;;;;;;;;;5102862;28;20075;-59
2023/10/11 07:14:57;;;;;;;3.40;1.98;;;;;;;;;;5101992;28;20058;-58
2023/10/11 07:17:24;;;;;;;5.22;2.60;;;;;;;;;;5107146;28;20062;-59
2023/10/11 07:19:53;;;;;;;3.30;2.15;;;;;;;;;;5106792;28;20051;-59
2023/10/11 07:22:25;;;;;;;;;;;;;;;;;;5108471;28;20491;-59
2023/10/11 07:24:55;;;;;;;5.88;2.10;;;;;;;;;;5103535;28;19919;-59
2023/10/11 07:27:26;;;;;;;3.35;1.80;;;;;;;;;;5103698;28;20428;-59
2023/10/11 07:29:54;;;;;;;3.45;1.95;;;;;;;;;;5101261;28;20408;-58
2023/10/11 07:32:20;;;;;;;4.35;2.42;;;;;;;;;;5107643;28;20393;-59
2023/10/11 07:34:48;;;;;;;3.97;2.20;;;;;;;;;;5106800;28;20050;-59
2023/10/11 07:37:19;;;;;;;4.80;2.13;;;;;;;;;;5100325;28;20058;-59
2023/10/11 07:39:47;;;;;;;3.55;2.35;;;;;;;;;;5103629;28;20043;-59
2023/10/11 07:42:18;;;;;;;9.38;2.63;;;;;;;;;;5099293;28;20062;-58
2023/10/11 07:44:50;;;;;;;4.38;2.13;;;;;;;;;;5102950;28;20051;-59
2023/10/11 07:47:18;;;;;;;6.60;2.30;;;;;;;;;;5107098;28;20058;-59
2023/10/11 07:49:45;;;;;;;6.22;2.17;;;;;;;;;;5105324;28;20078;-59
2023/10/11 07:52:19;;;;;;;4.68;2.05;;;;;;;;;;5104703;28;20059;-58
2023/10/11 07:54:47;;;;;;;7.57;2.25;;;;;;;;;;5110327;28;20052;-58
2023/10/11 07:57:14;;;;;;;6.27;1.97;;;;;;;;;;5108357;28;20542;-59
2023/10/11 07:59:41;;;;;;;4.93;1.70;;;;;;;;;;5110594;28;20055;-58
2023/10/11 08:02:09;;;;;;;6.03;2.30;;;;;;;;;;5106736;28;20043;-59
2023/10/11 08:04:44;;;;;;;4.88;2.30;;;;;;;;;;5108412;27;20050;-58
2023/10/11 08:07:16;;;;;;;3.33;2.00;;;;;;;;;;5105249;27;20047;-59
2023/10/11 08:09:46;;;;;;;6.88;2.42;;;;;;;;;;5107288;27;20040;-59
2023/10/11 08:12:15;;;;;;;4.82;2.42;;;;;;;;;;5101132;27;20496;-59
2023/10/11 08:14:44;;;;;;;4.22;2.10;;;;;;;;;;5099013;27;20523;-59
2023/10/11 08:17:12;;;;;;;3.28;1.88;;;;;;;;;;5104315;27;20059;-59
2023/10/11 08:19:41;;;;;;;4.68;1.83;;;;;;;;;;5105849;28;20485;-60
2023/10/11 08:22:10;;;;;;;9.95;2.97;;;;;;;;;;5097657;28;20048;-60
2023/10/11 08:24:46;;;;;;;6.43;2.65;;;;;;;;;;5106729;27;20044;-59
2023/10/11 08:27:16;;;;;;;4.85;2.08;;;;;;;;;;5101211;28;20054;-59
2023/10/11 08:29:43;;;;;;;2.88;2.10;;;;;;;;;;5103305;27;20048;-59
2023/10/11 08:32:13;;;;;;;5.13;2.00;;;;;;;;;;5105927;27;20044;-59
2023/10/11 08:34:43;;;;;;;4.18;2.10;;;;;;;;;;5113482;28;20067;-60
2023/10/11 08:37:10;;;;;;;3.42;1.73;;;;;;;;;;5110324;28;20056;-59
2023/10/11 08:39:41;;;;;;;4.75;2.80;;;;;;;;;;5111001;28;20434;-59
2023/10/11 08:42:10;;;;;;;4.28;2.08;;;;;;;;;;5114425;27;20483;-59
2023/10/11 08:44:40;;;;;;;3.70;2.13;;;;;;;;;;5113714;27;20423;-59
2023/10/11 08:47:07;;;;;;;3.67;2.08;;;;;;;;;;5098837;28;20052;-60
2023/10/11 08:49:34;;;;;;;3.83;2.17;;;;;;;;;;5113517;28;20055;-60
2023/10/11 08:52:01;;;;;;;3.20;2.30;;;;;;;;;;5115081;27;20044;-59
2023/10/11 08:54:28;;;;;;;3.47;1.98;;;;;;;;;;5113922;28;20055;-60
2023/10/11 08:56:57;;;;;;;5.75;2.97;;;;;;;;;;5114377;27;20373;-60
2023/10/11 08:59:25;;;;;;;3.38;2.00;;;;;;;;;;5113660;27;20063;-60
2023/10/11 09:01:59;;;;;;;5.32;2.72;;;;;;;;;;5114641;28;20059;-59
2023/10/11 09:04:27;;;;;;;6.93;2.28;;;;;;;;;;5099139;28;20055;-59
2023/10/11 09:06:58;;;;;;;3.30;2.10;;;;;;;;;;5103414;28;20048;-59
2023/10/11 09:09:33;;;;;;;4.85;2.20;;;;;;;;;;5112770;27;20434;-59
2023/10/11 09:11:59;;;;;;;4.78;2.80;;;;;;;;;;5098296;27;20054;-60
2023/10/11 09:14:28;;;;;;;5.28;2.05;;;;;;;;;;5114485;28;20398;-59
2023/10/11 09:16:57;;;;;;;4.40;1.95;;;;;;;;;;5113139;27;20051;-59
2023/10/11 09:19:24;;;;;;;4.28;1.98;;;;;;;;;;5113769;27;20056;-59
2023/10/11 09:22:17;;;;;;;6.45;2.45;;;;;;;;;;5109962;27;20048;-59
2023/10/11 09:24:45;;;;;;;5.20;2.47;;;;;;;;;;5124814;27;20467;-60
2023/10/11 09:27:19;;;;;;;6.45;2.25;;;;;;;;;;5102212;27;20051;-60
2023/10/11 09:29:47;;;;;;;5.45;2.33;;;;;;;;;;5098270;27;20059;-60
2023/10/11 09:32:19;;;;;;;3.92;2.03;;;;;;;;;;5101769;27;20055;-60
2023/10/11 09:34:47;;;;;;;6.22;2.60;;;;;;;;;;5097200;27;20055;-60
2023/10/11 09:37:14;;;;;;;3.65;2.10;;;;;;;;;;5107963;27;20048;-60
2023/10/11 09:39:42;;;;;;;4.32;2.15;;;;;;;;;;5108596;28;20047;-60
2023/10/11 09:42:11;;;;;;;6.10;2.80;;;;;;;;;;5100844;27;20458;-60
2023/10/11 09:44:39;;;;;;;3.53;1.92;;;;;;;;;;5095885;28;20396;-60
2023/10/11 09:47:06;;;;;;;;;;;;;;;;;;5095421;28;20062;-60
2023/10/11 09:49:41;;;;;;;4.97;2.03;;;;;;;;;;5100363;28;19924;-60
2023/10/11 09:52:08;;;;;;;4.43;2.03;;;;;;;;;;5107981;27;20510;-60
2023/10/11 09:54:37;;;;;;;6.35;2.60;;;;;;;;;;5099984;28;20059;-60
2023/10/11 09:57:08;;;;;;;4.47;2.25;;;;;;;;;;5095866;27;20059;-60
2023/10/11 09:59:40;;;;;;;4.55;2.55;;;;;;;;;;5101189;27;20052;-60
2023/10/11 10:02:10;;;;;;;4.35;2.60;;;;;;;;;;5108849;28;20044;-60
2023/10/11 10:04:55;;;;;;;4.93;2.65;;;;;;;;;;5113293;28;20058;-60
2023/10/11 10:07:25;;;;;;;3.42;2.05;;;;;;;;;;5108338;27;20052;-60
2023/10/11 10:09:52;;;;;;;5.97;2.40;;;;;;;;;;5093141;28;20478;-60
2023/10/11 10:12:22;;;;;;;3.30;1.70;;;;;;;;;;5106522;27;20047;-59
2023/10/11 10:14:53;;;;;;;5.53;2.30;;;;;;;;;;5094764;28;20433;-60
2023/10/11 10:17:19;;;;;;;3.78;2.10;;;;;;;;;;5098056;28;20422;-60
2023/10/11 10:19:47;;;;;;;6.72;2.65;;;;;;;;;;5111423;28;20382;-59
2023/10/11 10:22:16;;;;;;;5.45;2.60;;;;;;;;;;5106463;28;20565;-62
2023/10/11 10:24:44;;;;;;;4.63;2.10;;;;;;;;;;5110860;28;20407;-59
2023/10/11 10:27:33;;;;;;;2.95;1.83;;;;;;;;;;5110399;28;20058;-59
2023/10/11 10:30:01;;;;;;;5.80;2.22;;;;;;;;;;5108302;28;20047;-59
2023/10/11 10:32:28;;;;;;;3.20;2.25;;;;;;;;;;5111350;28;20047;-60
2023/10/11 10:35:11;;;;;;;3.63;1.90;;;;;;;;;;5099270;27;20055;-59
2023/10/11 10:37:56;;;;;;;5.45;2.47;;;;;;;;;;5102763;28;20056;-60
2023/10/11 10:40:29;;;;;;;5.63;2.15;;;;;;;;;;5101461;28;20420;-59
2023/10/11 10:43:14;;;;;;;8.10;2.47;;;;;;;;;;5098478;28;20473;-59
2023/10/11 10:45:41;;;;;;;4.55;2.10;;;;;;;;;;5110056;27;20526;-59
2023/10/11 10:48:18;;;;;;;3.90;1.95;;;;;;;;;;5109376;28;20058;-59
2023/10/11 10:50:48;;;;;;;4.88;2.33;;;;;;;;;;5108211;28;20408;-60
2023/10/11 10:53:16;;;;;;;4.47;2.20;;;;;;;;;;5104625;28;20464;-60
2023/10/11 10:55:42;;;;;;;3.90;2.45;;;;;;;;;;5104682;28;20062;-60
2023/10/11 10:58:15;;;;;;;4.55;2.13;;;;;;;;;;5101293;28;20054;-60
2023/10/11 11:00:47;;;;;;;7.18;2.38;;;;;;;;;;5101569;28;20048;-60
2023/10/11 11:03:22;;;;;;;6.03;2.90;;;;;;;;;;5104014;28;20052;-59
2023/10/11 11:05:56;;;;;;;4.82;2.35;;;;;;;;;;5105344;28;20048;-60
2023/10/11 11:08:27;;;;;;;6.13;3.00;;;;;;;;;;5101071;28;20066;-59
2023/10/11 11:11:18;;;;;;;7.28;2.67;;;;;;;;;;5097684;28;20063;-59
2023/10/11 11:13:45;;;;;;;6.00;2.47;;;;;;;;;;5109682;28;20055;-59
2023/10/11 11:16:15;;;;;;;3.38;2.30;;;;;;;;;;5097756;28;20468;-60
2023/10/11 11:18:44;;;;;;;7.75;2.15;;;;;;;;;;5099853;28;20055;-60
2023/10/11 11:21:19;;;;;;;4.00;2.45;;;;;;;;;;5099971;28;20048;-59
2023/10/11 11:23:49;;;;;;;4.25;2.03;;;;;;;;;;5106346;28;20048;-60
2023/10/11 11:26:21;;;;;;;6.07;2.20;;;;;;;;;;5100549;28;20058;-59
2023/10/11 11:28:47;;;;;;;7.60;2.78;;;;;;;;;;5106925;28;20055;-60
2023/10/11 11:31:25;;;;;;;6.32;2.42;;;;;;;;;;5105224;27;20044;-60
2023/10/11 11:34:05;;;;;;;5.45;2.30;;;;;;;;;;5107799;27;20047;-60
2023/10/11 11:36:34;;;;;;;6.07;2.17;;;;;;;;;;5097359;27;20043;-59
2023/10/11 11:41:44;;;;;;;6.13;2.85;;;;;;;;;;5111093;28;20044;-59
2023/10/11 11:44:19;;;;;;;12.95;2.40;;;;;;;;;;5097115;27;20052;-60
2023/10/11 11:46:50;;;;;;;8.18;2.38;;;;;;;;;;5059176;28;20501;-60
2023/10/11 11:49:21;;;;;;;9.63;1.98;;;;;;;;;;5063507;28;20053;-60
2023/10/11 11:51:50;;;;;;;6.57;2.38;;;;;;;;;;5066301;28;20045;-60
2023/10/11 11:54:19;;;;;;;7.63;2.85;;;;;;;;;;5060497;28;20083;-61
2023/10/11 11:56:45;;;;;;;4.75;3.00;;;;;;;;;;5059424;28;20052;-61
2023/10/11 11:59:22;;;;;;;6.63;2.65;;;;;;;;;;5057357;28;20049;-62
2023/10/11 12:01:53;;;;;;;6.60;2.38;;;;;;;;;;5068917;28;20053;-61
2023/10/11 12:04:28;;;;;;;8.38;2.83;;;;;;;;;;5055061;28;20060;-61
2023/10/11 12:06:57;;;;;;;6.60;2.83;;;;;;;;;;5068849;28;20049;-61
2023/10/11 12:09:31;;;;;;;5.90;2.60;;;;;;;;;;5063663;28;20052;-61
2023/10/11 12:12:02;;;;;;;4.50;2.30;;;;;;;;;;5073568;28;20056;-61
2023/10/11 12:14:29;;;;;;;3.50;1.92;;;;;;;;;;5072425;28;20048;-61
2023/10/11 12:16:56;;;;;;;7.25;2.60;;;;;;;;;;5064043;28;20048;-61
2023/10/11 12:19:23;;;;;;;9.95;3.13;;;;;;;;;;5057133;28;20053;-61
2023/10/11 12:21:51;;;;;;;4.28;2.47;;;;;;;;;;5071037;28;20072;-61
2023/10/11 12:24:17;;;;;;;4.15;2.00;;;;;;;;;;5071120;28;20060;-61
2023/10/11 12:26:45;;;;;;;8.20;2.50;;;;;;;;;;5062512;28;20052;-61
2023/10/11 12:29:14;;;;;;;6.05;2.70;;;;;;;;;;5066195;28;20612;-61
2023/10/11 12:31:41;;;;;;;5.30;2.05;;;;;;;;;;5065552;28;20504;-61
2023/10/11 12:34:09;;;;;;;8.82;3.08;;;;;;;;;;5069589;28;20045;-61
2023/10/11 12:36:38;;;;;;;9.63;2.87;;;;;;;;;;5068832;28;20053;-61
2023/10/11 12:39:06;;;;;;;6.85;2.72;;;;;;;;;;5065988;28;20509;-61
2023/10/11 12:41:33;;;;;;;6.90;2.67;;;;;;;;;;5069634;28;20051;-60
2023/10/11 12:44:01;;;;;;;6.60;2.45;;;;;;;;;;5063781;28;20478;-60
2023/10/11 12:46:31;;;;;;;7.47;2.42;;;;;;;;;;5098419;28;20059;-61
2023/10/11 12:48:58;;;;;;;6.05;2.65;;;;;;;;;;5112359;28;20054;-60
2023/10/11 12:51:25;;;;;;;4.88;2.15;;;;;;;;;;5095856;27;20080;-61
2023/10/11 12:53:54;;;;;;;4.90;2.20;;;;;;;;;;5094741;27;20043;-62
2023/10/11 12:56:22;;;;;;;6.10;2.38;;;;;;;;;;5109543;28;20070;-61
2023/10/11 12:58:50;;;;;;;8.77;2.50;;;;;;;;;;5105354;27;20431;-61
2023/10/11 13:01:25;;;;;;;6.75;2.63;;;;;;;;;;5100196;28;20051;-61
2023/10/11 13:04:05;;;;;;;5.50;2.30;;;;;;;;;;5108434;28;20047;-61
2023/10/11 13:06:32;;;;;;;4.60;2.50;;;;;;;;;;5105701;28;20074;-61
2023/10/11 13:08:59;;;;;;;7.53;3.60;;;;;;;;;;5109170;28;20051;-61
2023/10/11 13:11:31;;;;;;;11.70;2.92;;;;;;;;;;5106875;28;20593;-60
2023/10/11 13:14:01;;;;;;;11.38;2.70;;;;;;;;;;5113633;28;20058;-61
2023/10/11 13:16:30;;;;;;;7.57;3.08;;;;;;;;;;5103305;28;20416;-60
2023/10/11 13:18:59;;;;;;;5.68;2.53;;;;;;;;;;5109014;28;20420;-60
2023/10/11 13:21:33;;;;;;;5.75;3.10;;;;;;;;;;5113449;28;20411;-60
2023/10/11 13:24:08;;;;;;;6.20;2.95;;;;;;;;;;5102136;28;20052;-60
2023/10/11 13:26:36;;;;;;;8.05;3.40;;;;;;;;;;5093450;28;20070;-60
2023/10/11 13:29:03;;;;;;;6.35;2.72;;;;;;;;;;5106848;28;20063;-60
2023/10/11 13:31:31;;;;;;;6.80;2.75;;;;;;;;;;5100038;27;20481;-60
2023/10/11 13:33:58;;;;;;;5.97;2.95;;;;;;;;;;5101220;28;20044;-60
2023/10/11 13:36:33;;;;;;;8.63;2.85;;;;;;;;;;5093057;28;20050;-60
2023/10/11 13:39:00;;;;;;;6.45;2.90;;;;;;;;;;5102878;28;20051;-61
2023/10/11 13:41:29;;;;;;;7.28;2.65;;;;;;;;;;5110685;28;20044;-60
2023/10/11 13:43:56;;;;;;;7.57;3.33;;;;;;;;;;5102372;28;20043;-61
2023/10/11 13:46:23;;;;;;;4.60;2.55;;;;;;;;;;5102078;28;20052;-60
2023/10/11 13:49:00;;;;;;;5.75;2.58;;;;;;;;;;5105888;28;20051;-60
2023/10/11 13:51:29;;;;;;;7.65;2.88;;;;;;;;;;5105338;28;20155;-60
2023/10/11 13:53:56;;;;;;;6.18;2.63;;;;;;;;;;5100240;27;20039;-60
2023/10/11 13:56:24;;;;;;;6.18;2.45;;;;;;;;;;5106655;28;20055;-60
2023/10/11 13:58:51;;;;;;;4.30;2.17;;;;;;;;;;5100478;28;20488;-60
2023/10/11 14:04:12;;;;;;;5.25;1.90;;;;;;;;;;5112515;27;20475;-60
2023/10/11 14:06:43;;;;;;;5.53;2.20;;;;;;;;;;5108750;27;20048;-61
2023/10/11 14:09:17;;;;;;;11.95;2.90;;;;;;;;;;5094200;28;20055;-60
2023/10/11 14:11:46;;;;;;;7.80;2.97;;;;;;;;;;5099923;28;20078;-60
2023/10/11 14:14:14;;;;;;;7.20;2.67;;;;;;;;;;5108417;28;20044;-60
2023/10/11 14:16:41;;;;;;;5.85;2.97;;;;;;;;;;5093896;27;20047;-61
2023/10/11 14:19:16;;;;;;;4.28;2.40;;;;;;;;;;5108369;28;20506;-61
2023/10/11 14:21:47;;;;;;;7.75;2.42;;;;;;;;;;5105423;28;20052;-61
2023/10/11 14:24:14;;;;;;;7.05;2.35;;;;;;;;;;5112612;28;20051;-61
2023/10/11 14:26:41;;;;;;;8.80;2.63;;;;;;;;;;5102152;27;20047;-60
2023/10/11 14:29:07;;;;;;;6.25;2.67;;;;;;;;;;5095573;28;20416;-61
2023/10/11 14:31:34;;;;;;;8.20;2.72;;;;;;;;;;5094646;28;20055;-61
2023/10/11 14:34:04;;;;;;;9.27;2.97;;;;;;;;;;5098882;28;20075;-61
2023/10/11 14:36:32;;;;;;;7.43;2.58;;;;;;;;;;5096124;28;20055;-61
2023/10/11 14:39:08;;;;;;;7.35;2.88;;;;;;;;;;5105803;28;20401;-60
2023/10/11 14:41:37;;;;;;;5.75;2.35;;;;;;;;;;5099135;28;20052;-61
2023/10/11 14:44:04;;;;;;;8.88;2.47;;;;;;;;;;5106684;28;20062;-61
2023/10/11 14:46:30;;;;;;;8.57;2.58;;;;;;;;;;5101555;28;20047;-61
2023/10/11 14:48:59;;;;;;;7.10;2.10;;;;;;;;;;5099645;28;20070;-60
2023/10/11 14:51:26;;;;;;;4.07;2.17;;;;;;;;;;5105361;28;20191;-60
2023/10/11 14:53:54;;;;;;;10.50;2.85;;;;;;;;;;5091282;28;20055;-61
2023/10/11 14:56:21;;;;;;;5.10;2.40;;;;;;;;;;5090745;28;20051;-60
2023/10/11 14:58:48;;;;;;;5.22;2.45;;;;;;;;;;5090468;28;20055;-61
2023/10/11 15:01:15;;;;;;;9.45;2.00;;;;;;;;;;5091083;28;20048;-61
2023/10/11 15:03:42;;;;;;;9.50;2.97;;;;;;;;;;5094550;28;20063;-61
2023/10/11 15:06:10;;;;;;;6.10;2.15;;;;;;;;;;5095010;28;20412;-61
2023/10/11 15:08:38;;;;;;;7.30;2.92;;;;;;;;;;5097635;27;20066;-61
2023/10/11 15:11:06;;;;;;;6.07;2.45;;;;;;;;;;5096404;28;20059;-61
2023/10/11 15:13:34;;;;;;;8.53;3.03;;;;;;;;;;5096628;28;20052;-60
2023/10/11 15:16:03;;;;;;;8.77;2.90;;;;;;;;;;5080041;28;20485;-61
2023/10/11 15:18:32;;;;;;;7.20;2.40;;;;;;;;;;5095715;28;20056;-60
2023/10/11 15:20:59;;;;;;;;;;;;;;;;;;5097130;28;20051;-60
2023/10/11 15:23:28;;;;;;;9.25;3.05;;;;;;;;;;5095927;28;19920;-61
2023/10/11 15:25:55;;;;;;;5.50;2.47;;;;;;;;;;5101332;28;20048;-61
2023/10/11 15:28:23;;;;;;;10.95;2.17;;;;;;;;;;5109590;28;20055;-61
2023/10/11 15:30:50;;;;;;;8.63;3.25;;;;;;;;;;5116538;28;20492;-61
2023/10/11 15:33:17;;;;;;;10.15;3.33;;;;;;;;;;5116398;28;20063;-60